sensor_id;sensor_type;location;lat;lon;timestamp;P1;durP1;ratioP1;P2;durP2;ratioP2
42260;SDS011;27926;48.062;7.474;2022-09-30T00:00:42;4.68;;;2.22;;
42260;SDS011;27926;48.062;7.474;2022-09-30T00:03:07;3.63;;;2.00;;
42260;SDS011;27926;48.062;7.474;2022-09-30T00:05:31;2.28;;;1.63;;
42260;SDS011;27926;48.062;7.474;2022-09-30T00:07:56;4.72;;;2.20;;
42260;SDS011;27926;48.062;7.474;2022-09-30T00:10:21;5.47;;;1.98;;
42260;SDS011;27926;48.062;7.474;2022-09-30T00:12:45;5.80;;;2.33;;
42260;SDS011;27926;48.062;7.474;2022-09-30T00:15:10;4.40;;;2.15;;
42260;SDS011;27926;48.062;7.474;2022-09-30T00:17:36;6.18;;;2.30;;
42260;SDS011;27926;48.062;7.474;2022-09-30T00:20:02;5.53;;;2.38;;
42260;SDS011;27926;48.062;7.474;2022-09-30T00:22:27;2.75;;;2.05;;
42260;SDS011;27926;48.062;7.474;2022-09-30T00:24:52;4.85;;;2.00;;
42260;SDS011;27926;48.062;7.474;2022-09-30T00:27:16;7.45;;;2.33;;
42260;SDS011;27926;48.062;7.474;2022-09-30T00:32:08;4.05;;;2.05;;
42260;SDS011;27926;48.062;7.474;2022-09-30T00:34:32;4.60;;;2.00;;
42260;SDS011;27926;48.062;7.474;2022-09-30T00:36:57;2.55;;;1.65;;
42260;SDS011;27926;48.062;7.474;2022-09-30T00:39:26;3.22;;;1.80;;
42260;SDS011;27926;48.062;7.474;2022-09-30T00:41:52;3.97;;;1.30;;
42260;SDS011;27926;48.062;7.474;2022-09-30T00:49:52;3.00;;;1.83;;
42260;SDS011;27926;48.062;7.474;2022-09-30T00:52:21;11.48;;;5.55;;
42260;SDS011;27926;48.062;7.474;2022-09-30T00:54:46;12.25;;;5.53;;
42260;SDS011;27926;48.062;7.474;2022-09-30T00:57:11;12.07;;;6.00;;
42260;SDS011;27926;48.062;7.474;2022-09-30T00:59:38;16.35;;;5.45;;
42260;SDS011;27926;48.062;7.474;2022-09-30T01:02:07;8.60;;;4.85;;
42260;SDS011;27926;48.062;7.474;2022-09-30T01:06:58;7.25;;;3.72;;
42260;SDS011;27926;48.062;7.474;2022-09-30T01:09:28;10.65;;;2.90;;
42260;SDS011;27926;48.062;7.474;2022-09-30T01:11:56;7.20;;;3.22;;
42260;SDS011;27926;48.062;7.474;2022-09-30T01:14:22;3.47;;;2.45;;
42260;SDS011;27926;48.062;7.474;2022-09-30T01:16:54;5.68;;;2.90;;
42260;SDS011;27926;48.062;7.474;2022-09-30T01:22:19;6.70;;;2.90;;
42260;SDS011;27926;48.062;7.474;2022-09-30T01:25:12;6.18;;;3.58;;
42260;SDS011;27926;48.062;7.474;2022-09-30T01:39:10;5.78;;;3.03;;
42260;SDS011;27926;48.062;7.474;2022-09-30T01:41:52;8.25;;;3.50;;
42260;SDS011;27926;48.062;7.474;2022-09-30T01:44:34;9.23;;;3.10;;
42260;SDS011;27926;48.062;7.474;2022-09-30T01:47:09;5.72;;;2.40;;
42260;SDS011;27926;48.062;7.474;2022-09-30T01:55:06;4.65;;;2.97;;
42260;SDS011;27926;48.062;7.474;2022-09-30T02:07:42;5.72;;;2.85;;
42260;SDS011;27926;48.062;7.474;2022-09-30T02:10:21;4.05;;;2.45;;
42260;SDS011;27926;48.062;7.474;2022-09-30T02:12:51;9.68;;;2.50;;
42260;SDS011;27926;48.062;7.474;2022-09-30T02:15:21;5.47;;;2.75;;
42260;SDS011;27926;48.062;7.474;2022-09-30T02:17:57;6.00;;;2.60;;
42260;SDS011;27926;48.062;7.474;2022-09-30T02:20:28;7.25;;;3.28;;
42260;SDS011;27926;48.062;7.474;2022-09-30T02:22:59;11.60;;;3.08;;
42260;SDS011;27926;48.062;7.474;2022-09-30T02:25:31;6.95;;;3.17;;
42260;SDS011;27926;48.062;7.474;2022-09-30T02:28:02;8.48;;;3.42;;
42260;SDS011;27926;48.062;7.474;2022-09-30T02:30:35;6.45;;;3.80;;
42260;SDS011;27926;48.062;7.474;2022-09-30T02:33:03;5.70;;;3.53;;
42260;SDS011;27926;48.062;7.474;2022-09-30T02:38:20;5.75;;;4.25;;
42260;SDS011;27926;48.062;7.474;2022-09-30T02:40:48;6.72;;;4.55;;
42260;SDS011;27926;48.062;7.474;2022-09-30T02:43:18;7.95;;;4.50;;
42260;SDS011;27926;48.062;7.474;2022-09-30T02:59:41;9.20;;;3.75;;
42260;SDS011;27926;48.062;7.474;2022-09-30T03:02:06;5.72;;;4.00;;
42260;SDS011;27926;48.062;7.474;2022-09-30T03:04:31;12.10;;;4.32;;
42260;SDS011;27926;48.062;7.474;2022-09-30T03:06:58;11.05;;;4.15;;
42260;SDS011;27926;48.062;7.474;2022-09-30T03:09:24;9.30;;;4.40;;
42260;SDS011;27926;48.062;7.474;2022-09-30T03:11:50;7.22;;;4.85;;
42260;SDS011;27926;48.062;7.474;2022-09-30T03:14:44;6.72;;;4.53;;
42260;SDS011;27926;48.062;7.474;2022-09-30T03:22:48;6.68;;;3.97;;
42260;SDS011;27926;48.062;7.474;2022-09-30T03:25:20;7.32;;;4.25;;
42260;SDS011;27926;48.062;7.474;2022-09-30T03:28:26;7.45;;;3.70;;
42260;SDS011;27926;48.062;7.474;2022-09-30T03:31:08;9.07;;;4.85;;
42260;SDS011;27926;48.062;7.474;2022-09-30T03:33:50;12.05;;;5.10;;
42260;SDS011;27926;48.062;7.474;2022-09-30T03:36:57;8.55;;;4.43;;
42260;SDS011;27926;48.062;7.474;2022-09-30T03:39:27;5.93;;;3.88;;
42260;SDS011;27926;48.062;7.474;2022-09-30T03:42:33;7.45;;;4.15;;
42260;SDS011;27926;48.062;7.474;2022-09-30T03:45:17;11.05;;;3.35;;
42260;SDS011;27926;48.062;7.474;2022-09-30T03:48:01;11.25;;;3.40;;
42260;SDS011;27926;48.062;7.474;2022-09-30T03:50:33;6.25;;;2.92;;
42260;SDS011;27926;48.062;7.474;2022-09-30T03:53:00;18.63;;;3.90;;
42260;SDS011;27926;48.062;7.474;2022-09-30T03:55:25;8.57;;;3.40;;
42260;SDS011;27926;48.062;7.474;2022-09-30T03:57:50;6.65;;;3.45;;
42260;SDS011;27926;48.062;7.474;2022-09-30T04:00:17;7.88;;;3.08;;
42260;SDS011;27926;48.062;7.474;2022-09-30T04:02:44;3.67;;;2.90;;
42260;SDS011;27926;48.062;7.474;2022-09-30T04:05:09;5.20;;;2.80;;
42260;SDS011;27926;48.062;7.474;2022-09-30T04:07:34;7.68;;;3.72;;
42260;SDS011;27926;48.062;7.474;2022-09-30T04:09:59;4.03;;;3.20;;
42260;SDS011;27926;48.062;7.474;2022-09-30T04:12:23;7.00;;;3.67;;
42260;SDS011;27926;48.062;7.474;2022-09-30T04:14:48;8.05;;;3.63;;
42260;SDS011;27926;48.062;7.474;2022-09-30T04:17:13;6.32;;;3.15;;
42260;SDS011;27926;48.062;7.474;2022-09-30T04:19:38;5.07;;;3.25;;
42260;SDS011;27926;48.062;7.474;2022-09-30T04:22:03;6.30;;;2.97;;
42260;SDS011;27926;48.062;7.474;2022-09-30T04:24:27;7.25;;;2.58;;
42260;SDS011;27926;48.062;7.474;2022-09-30T04:26:52;5.35;;;3.08;;
42260;SDS011;27926;48.062;7.474;2022-09-30T04:29:17;10.63;;;3.42;;
42260;SDS011;27926;48.062;7.474;2022-09-30T04:31:41;3.45;;;3.00;;
42260;SDS011;27926;48.062;7.474;2022-09-30T04:34:06;6.70;;;3.03;;
42260;SDS011;27926;48.062;7.474;2022-09-30T04:36:33;9.40;;;3.30;;
42260;SDS011;27926;48.062;7.474;2022-09-30T04:38:57;12.90;;;3.75;;
42260;SDS011;27926;48.062;7.474;2022-09-30T04:41:22;9.23;;;4.90;;
42260;SDS011;27926;48.062;7.474;2022-09-30T04:43:48;13.65;;;4.55;;
42260;SDS011;27926;48.062;7.474;2022-09-30T04:46:16;12.23;;;5.32;;
42260;SDS011;27926;48.062;7.474;2022-09-30T04:48:43;8.82;;;5.38;;
42260;SDS011;27926;48.062;7.474;2022-09-30T04:51:12;9.55;;;5.63;;
42260;SDS011;27926;48.062;7.474;2022-09-30T04:53:44;6.78;;;4.63;;
42260;SDS011;27926;48.062;7.474;2022-09-30T04:56:09;8.55;;;5.45;;
42260;SDS011;27926;48.062;7.474;2022-09-30T04:58:34;8.98;;;5.07;;
42260;SDS011;27926;48.062;7.474;2022-09-30T05:03:28;13.30;;;5.32;;
42260;SDS011;27926;48.062;7.474;2022-09-30T05:05:53;9.15;;;5.05;;
42260;SDS011;27926;48.062;7.474;2022-09-30T05:08:18;12.55;;;4.75;;
42260;SDS011;27926;48.062;7.474;2022-09-30T05:10:43;26.60;;;10.93;;
42260;SDS011;27926;48.062;7.474;2022-09-30T05:13:11;9.68;;;6.07;;
42260;SDS011;27926;48.062;7.474;2022-09-30T05:15:35;13.30;;;6.00;;
42260;SDS011;27926;48.062;7.474;2022-09-30T05:18:00;13.43;;;5.80;;
42260;SDS011;27926;48.062;7.474;2022-09-30T05:20:24;11.77;;;5.65;;
42260;SDS011;27926;48.062;7.474;2022-09-30T05:22:53;13.63;;;5.53;;
42260;SDS011;27926;48.062;7.474;2022-09-30T05:25:19;23.73;;;6.55;;
42260;SDS011;27926;48.062;7.474;2022-09-30T05:27:43;8.82;;;5.00;;
42260;SDS011;27926;48.062;7.474;2022-09-30T05:30:12;11.18;;;6.47;;
42260;SDS011;27926;48.062;7.474;2022-09-30T05:32:36;11.90;;;7.63;;
42260;SDS011;27926;48.062;7.474;2022-09-30T05:35:01;15.90;;;7.22;;
42260;SDS011;27926;48.062;7.474;2022-09-30T05:37:26;17.42;;;8.65;;
42260;SDS011;27926;48.062;7.474;2022-09-30T05:39:51;18.42;;;8.90;;
42260;SDS011;27926;48.062;7.474;2022-09-30T05:42:15;19.73;;;9.18;;
42260;SDS011;27926;48.062;7.474;2022-09-30T05:44:40;16.08;;;8.27;;
42260;SDS011;27926;48.062;7.474;2022-09-30T05:47:04;15.18;;;7.60;;
42260;SDS011;27926;48.062;7.474;2022-09-30T05:49:29;10.40;;;7.03;;
42260;SDS011;27926;48.062;7.474;2022-09-30T05:51:54;9.80;;;6.55;;
42260;SDS011;27926;48.062;7.474;2022-09-30T05:54:19;9.23;;;6.50;;
42260;SDS011;27926;48.062;7.474;2022-09-30T05:56:43;19.33;;;9.32;;
42260;SDS011;27926;48.062;7.474;2022-09-30T05:59:08;18.13;;;11.65;;
42260;SDS011;27926;48.062;7.474;2022-09-30T06:01:33;15.63;;;10.23;;
42260;SDS011;27926;48.062;7.474;2022-09-30T06:03:57;15.93;;;8.00;;
42260;SDS011;27926;48.062;7.474;2022-09-30T06:06:22;11.10;;;6.45;;
42260;SDS011;27926;48.062;7.474;2022-09-30T06:08:47;16.75;;;5.75;;
42260;SDS011;27926;48.062;7.474;2022-09-30T06:11:13;9.32;;;5.82;;
42260;SDS011;27926;48.062;7.474;2022-09-30T06:13:40;16.17;;;6.15;;
42260;SDS011;27926;48.062;7.474;2022-09-30T06:16:05;14.02;;;6.72;;
42260;SDS011;27926;48.062;7.474;2022-09-30T06:18:30;18.45;;;6.68;;
42260;SDS011;27926;48.062;7.474;2022-09-30T06:20:55;13.00;;;7.25;;
42260;SDS011;27926;48.062;7.474;2022-09-30T06:23:25;9.43;;;6.60;;
42260;SDS011;27926;48.062;7.474;2022-09-30T06:25:50;9.20;;;5.78;;
42260;SDS011;27926;48.062;7.474;2022-09-30T06:28:16;9.88;;;5.93;;
42260;SDS011;27926;48.062;7.474;2022-09-30T06:30:42;13.50;;;6.93;;
42260;SDS011;27926;48.062;7.474;2022-09-30T06:33:07;8.70;;;6.15;;
42260;SDS011;27926;48.062;7.474;2022-09-30T06:35:32;11.07;;;6.25;;
42260;SDS011;27926;48.062;7.474;2022-09-30T06:37:56;10.18;;;5.85;;
42260;SDS011;27926;48.062;7.474;2022-09-30T06:40:24;11.63;;;6.00;;
42260;SDS011;27926;48.062;7.474;2022-09-30T06:42:49;12.70;;;6.32;;
42260;SDS011;27926;48.062;7.474;2022-09-30T06:45:16;11.27;;;6.97;;
42260;SDS011;27926;48.062;7.474;2022-09-30T06:47:42;12.80;;;6.53;;
42260;SDS011;27926;48.062;7.474;2022-09-30T06:50:06;10.23;;;6.10;;
42260;SDS011;27926;48.062;7.474;2022-09-30T06:52:31;10.57;;;7.15;;
42260;SDS011;27926;48.062;7.474;2022-09-30T06:54:56;12.93;;;6.53;;
42260;SDS011;27926;48.062;7.474;2022-09-30T06:57:21;14.85;;;6.38;;
42260;SDS011;27926;48.062;7.474;2022-09-30T06:59:48;15.60;;;6.65;;
42260;SDS011;27926;48.062;7.474;2022-09-30T07:02:13;10.15;;;6.25;;
42260;SDS011;27926;48.062;7.474;2022-09-30T07:04:37;12.23;;;6.72;;
42260;SDS011;27926;48.062;7.474;2022-09-30T07:07:02;8.63;;;5.90;;
42260;SDS011;27926;48.062;7.474;2022-09-30T07:09:26;12.70;;;6.88;;
42260;SDS011;27926;48.062;7.474;2022-09-30T07:11:51;11.13;;;6.55;;
42260;SDS011;27926;48.062;7.474;2022-09-30T07:14:16;13.18;;;6.80;;
42260;SDS011;27926;48.062;7.474;2022-09-30T07:16:41;10.73;;;5.57;;
42260;SDS011;27926;48.062;7.474;2022-09-30T07:19:09;10.10;;;5.90;;
42260;SDS011;27926;48.062;7.474;2022-09-30T07:21:35;12.05;;;6.28;;
42260;SDS011;27926;48.062;7.474;2022-09-30T07:24:00;11.55;;;6.55;;
42260;SDS011;27926;48.062;7.474;2022-09-30T07:26:25;9.60;;;6.30;;
42260;SDS011;27926;48.062;7.474;2022-09-30T07:28:51;15.23;;;6.93;;
42260;SDS011;27926;48.062;7.474;2022-09-30T07:31:17;13.90;;;7.05;;
42260;SDS011;27926;48.062;7.474;2022-09-30T07:33:44;11.57;;;7.80;;
42260;SDS011;27926;48.062;7.474;2022-09-30T07:36:09;14.63;;;9.43;;
42260;SDS011;27926;48.062;7.474;2022-09-30T07:38:36;16.08;;;9.95;;
42260;SDS011;27926;48.062;7.474;2022-09-30T07:41:05;14.20;;;9.52;;
42260;SDS011;27926;48.062;7.474;2022-09-30T07:43:32;19.63;;;9.95;;
42260;SDS011;27926;48.062;7.474;2022-09-30T07:46:19;21.88;;;10.43;;
42260;SDS011;27926;48.062;7.474;2022-09-30T07:48:47;15.75;;;10.75;;
42260;SDS011;27926;48.062;7.474;2022-09-30T07:51:19;16.88;;;10.90;;
42260;SDS011;27926;48.062;7.474;2022-09-30T07:53:47;21.35;;;12.27;;
42260;SDS011;27926;48.062;7.474;2022-09-30T07:56:17;20.38;;;11.98;;
42260;SDS011;27926;48.062;7.474;2022-09-30T07:58:42;19.90;;;11.60;;
42260;SDS011;27926;48.062;7.474;2022-09-30T08:01:07;19.52;;;10.82;;
42260;SDS011;27926;48.062;7.474;2022-09-30T08:03:37;15.43;;;10.18;;
42260;SDS011;27926;48.062;7.474;2022-09-30T08:06:11;14.65;;;10.48;;
42260;SDS011;27926;48.062;7.474;2022-09-30T08:08:38;15.48;;;10.25;;
42260;SDS011;27926;48.062;7.474;2022-09-30T08:11:04;13.15;;;9.60;;
42260;SDS011;27926;48.062;7.474;2022-09-30T08:13:30;21.88;;;10.77;;
42260;SDS011;27926;48.062;7.474;2022-09-30T08:15:55;17.45;;;10.82;;
42260;SDS011;27926;48.062;7.474;2022-09-30T08:18:19;20.15;;;10.20;;
42260;SDS011;27926;48.062;7.474;2022-09-30T08:20:44;16.30;;;10.25;;
42260;SDS011;27926;48.062;7.474;2022-09-30T08:23:09;19.10;;;9.23;;
42260;SDS011;27926;48.062;7.474;2022-09-30T08:25:33;19.17;;;10.57;;
42260;SDS011;27926;48.062;7.474;2022-09-30T08:27:58;17.70;;;10.70;;
42260;SDS011;27926;48.062;7.474;2022-09-30T08:30:23;15.88;;;10.15;;
42260;SDS011;27926;48.062;7.474;2022-09-30T08:32:47;15.00;;;9.93;;
42260;SDS011;27926;48.062;7.474;2022-09-30T08:35:12;17.50;;;10.10;;
42260;SDS011;27926;48.062;7.474;2022-09-30T08:37:37;14.88;;;9.45;;
42260;SDS011;27926;48.062;7.474;2022-09-30T08:40:02;18.27;;;9.60;;
42260;SDS011;27926;48.062;7.474;2022-09-30T08:48:21;17.38;;;7.88;;
42260;SDS011;27926;48.062;7.474;2022-09-30T08:53:40;15.88;;;8.93;;
42260;SDS011;27926;48.062;7.474;2022-09-30T08:56:11;13.68;;;7.80;;
42260;SDS011;27926;48.062;7.474;2022-09-30T09:02:00;18.98;;;9.07;;
42260;SDS011;27926;48.062;7.474;2022-09-30T09:04:46;12.95;;;8.80;;
42260;SDS011;27926;48.062;7.474;2022-09-30T09:07:18;14.40;;;9.00;;
42260;SDS011;27926;48.062;7.474;2022-09-30T09:20:28;14.85;;;10.10;;
42260;SDS011;27926;48.062;7.474;2022-09-30T09:22:59;20.13;;;9.43;;
42260;SDS011;27926;48.062;7.474;2022-09-30T09:25:27;17.13;;;9.68;;
42260;SDS011;27926;48.062;7.474;2022-09-30T09:30:30;16.42;;;8.77;;
42260;SDS011;27926;48.062;7.474;2022-09-30T09:33:00;13.98;;;9.43;;
42260;SDS011;27926;48.062;7.474;2022-09-30T09:38:14;17.73;;;9.07;;
42260;SDS011;27926;48.062;7.474;2022-09-30T09:48:42;16.02;;;9.93;;
42260;SDS011;27926;48.062;7.474;2022-09-30T09:54:04;19.40;;;9.65;;
42260;SDS011;27926;48.062;7.474;2022-09-30T09:56:33;15.32;;;9.05;;
42260;SDS011;27926;48.062;7.474;2022-09-30T09:59:17;13.90;;;8.40;;
42260;SDS011;27926;48.062;7.474;2022-09-30T10:01:46;16.10;;;9.45;;
42260;SDS011;27926;48.062;7.474;2022-09-30T10:04:18;20.85;;;9.45;;
42260;SDS011;27926;48.062;7.474;2022-09-30T10:11:48;18.98;;;8.77;;
42260;SDS011;27926;48.062;7.474;2022-09-30T10:14:17;20.17;;;9.25;;
42260;SDS011;27926;48.062;7.474;2022-09-30T10:16:44;13.80;;;9.73;;
42260;SDS011;27926;48.062;7.474;2022-09-30T10:19:22;11.93;;;8.30;;
42260;SDS011;27926;48.062;7.474;2022-09-30T10:21:49;16.13;;;9.23;;
42260;SDS011;27926;48.062;7.474;2022-09-30T10:24:27;20.70;;;8.73;;
42260;SDS011;27926;48.062;7.474;2022-09-30T10:26:53;14.65;;;8.23;;
42260;SDS011;27926;48.062;7.474;2022-09-30T10:29:26;25.63;;;10.43;;
42260;SDS011;27926;48.062;7.474;2022-09-30T10:31:52;15.68;;;9.20;;
42260;SDS011;27926;48.062;7.474;2022-09-30T10:34:21;13.02;;;8.27;;
42260;SDS011;27926;48.062;7.474;2022-09-30T10:36:55;15.60;;;8.93;;
42260;SDS011;27926;48.062;7.474;2022-09-30T10:39:22;14.52;;;8.55;;
42260;SDS011;27926;48.062;7.474;2022-09-30T10:41:48;12.00;;;8.00;;
42260;SDS011;27926;48.062;7.474;2022-09-30T10:44:21;11.70;;;8.13;;
42260;SDS011;27926;48.062;7.474;2022-09-30T10:46:48;12.57;;;8.07;;
42260;SDS011;27926;48.062;7.474;2022-09-30T10:49:28;13.27;;;7.38;;
42260;SDS011;27926;48.062;7.474;2022-09-30T10:52:20;12.80;;;7.00;;
42260;SDS011;27926;48.062;7.474;2022-09-30T10:57:17;11.05;;;6.28;;
42260;SDS011;27926;48.062;7.474;2022-09-30T10:59:49;14.55;;;7.93;;
42260;SDS011;27926;48.062;7.474;2022-09-30T11:02:25;18.30;;;7.35;;
42260;SDS011;27926;48.062;7.474;2022-09-30T11:07:32;12.32;;;7.47;;
42260;SDS011;27926;48.062;7.474;2022-09-30T11:10:25;12.55;;;7.60;;
42260;SDS011;27926;48.062;7.474;2022-09-30T11:23:52;7.28;;;4.80;;
42260;SDS011;27926;48.062;7.474;2022-09-30T11:29:00;11.88;;;6.63;;
42260;SDS011;27926;48.062;7.474;2022-09-30T11:31:38;10.35;;;6.28;;
42260;SDS011;27926;48.062;7.474;2022-09-30T11:34:21;10.55;;;6.13;;
42260;SDS011;27926;48.062;7.474;2022-09-30T11:37:38;12.15;;;6.18;;
42260;SDS011;27926;48.062;7.474;2022-09-30T11:50:57;12.30;;;6.05;;
42260;SDS011;27926;48.062;7.474;2022-09-30T11:56:08;9.55;;;5.40;;
42260;SDS011;27926;48.062;7.474;2022-09-30T11:58:40;8.23;;;5.05;;
42260;SDS011;27926;48.062;7.474;2022-09-30T12:01:11;10.20;;;4.53;;
42260;SDS011;27926;48.062;7.474;2022-09-30T12:03:45;11.13;;;4.60;;
42260;SDS011;27926;48.062;7.474;2022-09-30T12:06:22;8.55;;;4.13;;
42260;SDS011;27926;48.062;7.474;2022-09-30T12:09:12;7.00;;;4.18;;
42260;SDS011;27926;48.062;7.474;2022-09-30T12:11:47;5.82;;;4.30;;
42260;SDS011;27926;48.062;7.474;2022-09-30T12:14:18;7.15;;;4.15;;
42260;SDS011;27926;48.062;7.474;2022-09-30T12:16:48;9.07;;;3.47;;
42260;SDS011;27926;48.062;7.474;2022-09-30T12:21:39;5.97;;;3.30;;
42260;SDS011;27926;48.062;7.474;2022-09-30T12:24:18;4.07;;;2.60;;
42260;SDS011;27926;48.062;7.474;2022-09-30T12:26:57;9.60;;;2.72;;
42260;SDS011;27926;48.062;7.474;2022-09-30T12:29:32;3.22;;;2.30;;
42260;SDS011;27926;48.062;7.474;2022-09-30T12:33:27;5.15;;;2.15;;
42260;SDS011;27926;48.062;7.474;2022-09-30T12:43:26;8.73;;;3.65;;
42260;SDS011;27926;48.062;7.474;2022-09-30T12:46:24;6.57;;;2.97;;
42260;SDS011;27926;48.062;7.474;2022-09-30T12:49:12;8.05;;;4.07;;
42260;SDS011;27926;48.062;7.474;2022-09-30T12:51:43;5.72;;;2.83;;
42260;SDS011;27926;48.062;7.474;2022-09-30T12:54:12;7.05;;;2.50;;
42260;SDS011;27926;48.062;7.474;2022-09-30T12:56:43;8.18;;;2.30;;
42260;SDS011;27926;48.062;7.474;2022-09-30T12:59:10;3.25;;;2.22;;
42260;SDS011;27926;48.062;7.474;2022-09-30T13:01:37;5.55;;;2.60;;
42260;SDS011;27926;48.062;7.474;2022-09-30T13:09:21;4.20;;;2.13;;
42260;SDS011;27926;48.062;7.474;2022-09-30T13:30:31;2.38;;;1.10;;
42260;SDS011;27926;48.062;7.474;2022-09-30T13:40:56;2.22;;;1.13;;
42260;SDS011;27926;48.062;7.474;2022-09-30T13:46:16;3.80;;;1.27;;
42260;SDS011;27926;48.062;7.474;2022-09-30T13:48:42;2.67;;;1.10;;
42260;SDS011;27926;48.062;7.474;2022-09-30T13:51:14;5.05;;;1.75;;
42260;SDS011;27926;48.062;7.474;2022-09-30T13:53:43;3.10;;;1.85;;
42260;SDS011;27926;48.062;7.474;2022-09-30T13:56:14;2.35;;;1.75;;
42260;SDS011;27926;48.062;7.474;2022-09-30T14:15:55;3.42;;;1.70;;
42260;SDS011;27926;48.062;7.474;2022-09-30T14:24:08;3.47;;;1.70;;
42260;SDS011;27926;48.062;7.474;2022-09-30T14:26:42;2.65;;;1.55;;
42260;SDS011;27926;48.062;7.474;2022-09-30T14:32:11;5.55;;;1.65;;
42260;SDS011;27926;48.062;7.474;2022-09-30T14:34:37;2.75;;;1.38;;
42260;SDS011;27926;48.062;7.474;2022-09-30T14:37:02;2.30;;;1.30;;
42260;SDS011;27926;48.062;7.474;2022-09-30T14:39:27;2.05;;;1.60;;
42260;SDS011;27926;48.062;7.474;2022-09-30T14:41:54;4.90;;;1.67;;
42260;SDS011;27926;48.062;7.474;2022-09-30T14:44:21;3.50;;;1.73;;
42260;SDS011;27926;48.062;7.474;2022-09-30T14:46:49;2.05;;;1.40;;
42260;SDS011;27926;48.062;7.474;2022-09-30T14:49:16;2.58;;;1.70;;
42260;SDS011;27926;48.062;7.474;2022-09-30T14:51:51;10.23;;;4.30;;
42260;SDS011;27926;48.062;7.474;2022-09-30T14:54:22;4.55;;;2.33;;
42260;SDS011;27926;48.062;7.474;2022-09-30T14:56:55;2.67;;;1.77;;
42260;SDS011;27926;48.062;7.474;2022-09-30T15:01:58;2.80;;;1.35;;
42260;SDS011;27926;48.062;7.474;2022-09-30T15:04:26;2.70;;;2.25;;
42260;SDS011;27926;48.062;7.474;2022-09-30T15:06:56;4.85;;;1.95;;
42260;SDS011;27926;48.062;7.474;2022-09-30T15:09:26;5.32;;;1.58;;
42260;SDS011;27926;48.062;7.474;2022-09-30T15:12:10;4.13;;;1.60;;
42260;SDS011;27926;48.062;7.474;2022-09-30T15:14:45;4.18;;;1.42;;
42260;SDS011;27926;48.062;7.474;2022-09-30T15:17:15;2.03;;;1.70;;
42260;SDS011;27926;48.062;7.474;2022-09-30T15:19:46;4.43;;;1.65;;
42260;SDS011;27926;48.062;7.474;2022-09-30T15:22:13;4.28;;;2.17;;
42260;SDS011;27926;48.062;7.474;2022-09-30T15:24:38;7.60;;;3.05;;
42260;SDS011;27926;48.062;7.474;2022-09-30T15:27:05;9.70;;;3.13;;
42260;SDS011;27926;48.062;7.474;2022-09-30T15:29:37;7.05;;;3.17;;
42260;SDS011;27926;48.062;7.474;2022-09-30T15:32:19;10.70;;;3.53;;
42260;SDS011;27926;48.062;7.474;2022-09-30T15:34:46;9.55;;;3.50;;
42260;SDS011;27926;48.062;7.474;2022-09-30T15:37:29;6.20;;;3.28;;
42260;SDS011;27926;48.062;7.474;2022-09-30T15:39:56;6.30;;;3.25;;
42260;SDS011;27926;48.062;7.474;2022-09-30T15:50:50;10.02;;;3.35;;
42260;SDS011;27926;48.062;7.474;2022-09-30T15:55:47;11.00;;;3.58;;
42260;SDS011;27926;48.062;7.474;2022-09-30T16:00:50;9.60;;;4.72;;
42260;SDS011;27926;48.062;7.474;2022-09-30T16:03:25;8.30;;;3.53;;
42260;SDS011;27926;48.062;7.474;2022-09-30T16:06:06;6.63;;;3.40;;
42260;SDS011;27926;48.062;7.474;2022-09-30T16:08:46;7.13;;;3.05;;
42260;SDS011;27926;48.062;7.474;2022-09-30T16:11:24;5.90;;;3.15;;
42260;SDS011;27926;48.062;7.474;2022-09-30T16:13:52;4.63;;;2.75;;
42260;SDS011;27926;48.062;7.474;2022-09-30T16:18:47;7.07;;;3.13;;
42260;SDS011;27926;48.062;7.474;2022-09-30T16:21:27;6.07;;;2.70;;
42260;SDS011;27926;48.062;7.474;2022-09-30T16:29:10;5.70;;;2.55;;
42260;SDS011;27926;48.062;7.474;2022-09-30T16:31:35;9.45;;;2.70;;
42260;SDS011;27926;48.062;7.474;2022-09-30T16:33:59;4.47;;;2.67;;
42260;SDS011;27926;48.062;7.474;2022-09-30T16:36:24;5.07;;;2.33;;
42260;SDS011;27926;48.062;7.474;2022-09-30T16:38:49;8.48;;;2.22;;
42260;SDS011;27926;48.062;7.474;2022-09-30T16:41:14;6.07;;;2.53;;
42260;SDS011;27926;48.062;7.474;2022-09-30T16:43:38;3.90;;;2.33;;
42260;SDS011;27926;48.062;7.474;2022-09-30T16:46:03;7.68;;;2.63;;
42260;SDS011;27926;48.062;7.474;2022-09-30T16:48:28;3.03;;;1.83;;
42260;SDS011;27926;48.062;7.474;2022-09-30T16:51:12;10.18;;;1.95;;
42260;SDS011;27926;48.062;7.474;2022-09-30T16:53:38;4.15;;;2.13;;
42260;SDS011;27926;48.062;7.474;2022-09-30T16:56:03;3.20;;;1.77;;
42260;SDS011;27926;48.062;7.474;2022-09-30T16:58:28;6.40;;;2.22;;
42260;SDS011;27926;48.062;7.474;2022-09-30T17:00:54;4.25;;;2.30;;
42260;SDS011;27926;48.062;7.474;2022-09-30T17:03:18;5.10;;;2.17;;
42260;SDS011;27926;48.062;7.474;2022-09-30T17:05:45;7.70;;;2.00;;
42260;SDS011;27926;48.062;7.474;2022-09-30T17:08:15;8.52;;;2.15;;
42260;SDS011;27926;48.062;7.474;2022-09-30T17:10:41;1.85;;;1.70;;
42260;SDS011;27926;48.062;7.474;2022-09-30T17:13:07;15.48;;;2.13;;
42260;SDS011;27926;48.062;7.474;2022-09-30T17:15:32;3.22;;;2.00;;
42260;SDS011;27926;48.062;7.474;2022-09-30T17:18:02;4.88;;;2.10;;
42260;SDS011;27926;48.062;7.474;2022-09-30T17:20:31;4.38;;;2.58;;
42260;SDS011;27926;48.062;7.474;2022-09-30T17:22:57;4.30;;;2.42;;
42260;SDS011;27926;48.062;7.474;2022-09-30T17:25:21;10.30;;;2.75;;
42260;SDS011;27926;48.062;7.474;2022-09-30T17:27:46;3.60;;;2.30;;
42260;SDS011;27926;48.062;7.474;2022-09-30T17:30:16;4.10;;;2.60;;
42260;SDS011;27926;48.062;7.474;2022-09-30T17:32:41;7.85;;;3.70;;
42260;SDS011;27926;48.062;7.474;2022-09-30T17:35:07;7.43;;;2.63;;
42260;SDS011;27926;48.062;7.474;2022-09-30T17:37:32;4.30;;;2.60;;
42260;SDS011;27926;48.062;7.474;2022-09-30T17:39:57;5.72;;;3.65;;
42260;SDS011;27926;48.062;7.474;2022-09-30T17:42:22;8.20;;;2.47;;
42260;SDS011;27926;48.062;7.474;2022-09-30T17:45:05;7.68;;;2.70;;
42260;SDS011;27926;48.062;7.474;2022-09-30T17:47:30;6.47;;;2.83;;
42260;SDS011;27926;48.062;7.474;2022-09-30T17:49:55;6.07;;;3.13;;
42260;SDS011;27926;48.062;7.474;2022-09-30T17:52:19;10.85;;;2.60;;
42260;SDS011;27926;48.062;7.474;2022-09-30T17:54:44;4.90;;;2.30;;
42260;SDS011;27926;48.062;7.474;2022-09-30T17:57:09;5.50;;;2.70;;
42260;SDS011;27926;48.062;7.474;2022-09-30T17:59:34;9.65;;;2.33;;
42260;SDS011;27926;48.062;7.474;2022-09-30T18:01:58;8.10;;;2.47;;
42260;SDS011;27926;48.062;7.474;2022-09-30T18:04:23;4.22;;;2.47;;
42260;SDS011;27926;48.062;7.474;2022-09-30T18:06:49;2.90;;;2.20;;
42260;SDS011;27926;48.062;7.474;2022-09-30T18:09:13;6.03;;;2.80;;
42260;SDS011;27926;48.062;7.474;2022-09-30T18:11:38;5.38;;;2.35;;
42260;SDS011;27926;48.062;7.474;2022-09-30T18:14:03;3.33;;;2.00;;
42260;SDS011;27926;48.062;7.474;2022-09-30T18:16:28;7.82;;;2.20;;
42260;SDS011;27926;48.062;7.474;2022-09-30T18:18:57;3.45;;;2.42;;
42260;SDS011;27926;48.062;7.474;2022-09-30T18:21:22;7.18;;;4.10;;
42260;SDS011;27926;48.062;7.474;2022-09-30T18:23:49;12.05;;;6.43;;
42260;SDS011;27926;48.062;7.474;2022-09-30T18:26:14;14.27;;;7.45;;
42260;SDS011;27926;48.062;7.474;2022-09-30T18:28:39;12.77;;;5.38;;
42260;SDS011;27926;48.062;7.474;2022-09-30T18:33:31;7.00;;;3.58;;
42260;SDS011;27926;48.062;7.474;2022-09-30T18:35:58;6.43;;;3.60;;
42260;SDS011;27926;48.062;7.474;2022-09-30T18:38:23;8.18;;;4.43;;
42260;SDS011;27926;48.062;7.474;2022-09-30T18:40:48;7.15;;;4.20;;
42260;SDS011;27926;48.062;7.474;2022-09-30T18:43:13;6.72;;;3.80;;
42260;SDS011;27926;48.062;7.474;2022-09-30T18:45:37;8.90;;;4.43;;
42260;SDS011;27926;48.062;7.474;2022-09-30T18:48:03;7.83;;;4.13;;
42260;SDS011;27926;48.062;7.474;2022-09-30T18:50:28;13.25;;;4.47;;